createdAt,value
2019-03-31T00:01:43.617Z,4.70
2019-03-31T00:04:11.417Z,4.60
2019-03-31T00:06:39.195Z,4.50
2019-03-31T00:09:07.800Z,4.40
2019-03-31T00:11:35.815Z,4.40
2019-03-31T00:14:04.049Z,4.50
2019-03-31T00:16:32.509Z,4.60
2019-03-31T00:19:00.413Z,4.40
2019-03-31T00:21:29.285Z,4.40
2019-03-31T00:23:57.254Z,4.30
2019-03-31T00:26:26.180Z,4.10
2019-03-31T00:28:53.936Z,4.10
2019-03-31T00:31:22.781Z,3.90
2019-03-31T00:33:50.799Z,3.90
2019-03-31T00:36:18.672Z,4.00
2019-03-31T00:38:46.416Z,4.00
2019-03-31T00:41:14.422Z,4.10
2019-03-31T00:43:42.200Z,4.10
2019-03-31T00:46:10.109Z,4.10
2019-03-31T00:48:37.861Z,4.00
2019-03-31T00:51:05.617Z,3.90
2019-03-31T00:53:33.669Z,3.90
2019-03-31T00:56:01.412Z,3.90
2019-03-31T00:58:29.244Z,3.80
2019-03-31T01:01:17.328Z,3.80
2019-03-31T01:03:45.590Z,3.80
2019-03-31T01:06:15.971Z,3.80
2019-03-31T01:08:44.300Z,3.90
2019-03-31T01:11:15.415Z,3.90
2019-03-31T01:13:44.308Z,3.70
2019-03-31T01:16:13.145Z,3.70
2019-03-31T01:18:41.098Z,3.70
2019-03-31T01:21:08.941Z,3.70
2019-03-31T01:23:37.456Z,3.70
2019-03-31T01:26:05.405Z,3.80
2019-03-31T01:28:34.032Z,3.80
2019-03-31T01:31:02.717Z,3.80
2019-03-31T01:33:31.082Z,3.70
2019-03-31T01:35:59.177Z,3.70
2019-03-31T01:38:26.943Z,3.50
2019-03-31T01:40:54.932Z,3.50
2019-03-31T01:43:23.698Z,3.40
2019-03-31T01:45:51.745Z,3.30
2019-03-31T01:48:19.524Z,3.30
2019-03-31T01:50:47.289Z,3.20
2019-03-31T01:53:15.041Z,3.10
2019-03-31T01:55:43.184Z,3.20
2019-03-31T01:58:11.177Z,3.00
2019-03-31T02:00:42.518Z,3.20
2019-03-31T02:03:10.569Z,3.10
2019-03-31T02:05:38.336Z,3.20
2019-03-31T02:08:06.472Z,3.20
2019-03-31T02:10:34.244Z,3.20
2019-03-31T02:13:02.496Z,3.40
2019-03-31T02:15:30.441Z,3.20
2019-03-31T02:17:58.284Z,3.20
2019-03-31T02:20:26.116Z,3.20
2019-03-31T02:22:54.059Z,3.30
2019-03-31T02:25:22.510Z,3.40
2019-03-31T02:27:50.512Z,3.40
2019-03-31T02:30:18.353Z,3.50
2019-03-31T02:32:46.081Z,3.40
2019-03-31T02:35:15.843Z,3.50
2019-03-31T02:37:43.665Z,3.50
2019-03-31T02:40:11.434Z,3.40
2019-03-31T02:42:39.193Z,3.40
2019-03-31T02:45:07.968Z,3.50
2019-03-31T02:47:35.702Z,3.60
2019-03-31T02:50:03.883Z,3.40
2019-03-31T02:52:31.764Z,3.20
2019-03-31T02:54:59.538Z,3.20
2019-03-31T02:57:27.824Z,3.00
2019-03-31T02:59:57.238Z,2.80
2019-03-31T03:02:40.486Z,2.80
2019-03-31T03:05:17.947Z,2.90
2019-03-31T03:07:31.312Z,2.80
2019-03-31T03:10:00.642Z,2.80
2019-03-31T03:12:32.521Z,3.00
2019-03-31T03:15:02.281Z,2.90
2019-03-31T03:17:30.020Z,2.90
2019-03-31T03:19:57.757Z,2.80
2019-03-31T03:22:25.502Z,3.10
2019-03-31T03:24:53.291Z,2.80
2019-03-31T03:27:21.075Z,2.90
2019-03-31T03:29:49.609Z,3.00
2019-03-31T03:32:17.361Z,3.00
2019-03-31T03:34:45.525Z,3.20
2019-03-31T03:37:13.437Z,3.10
2019-03-31T03:39:42.132Z,3.30
2019-03-31T03:42:10.415Z,3.40
2019-03-31T03:44:38.294Z,3.40
2019-03-31T03:47:06.152Z,3.30
2019-03-31T03:49:34.093Z,3.30
2019-03-31T03:52:02.097Z,3.20
2019-03-31T03:54:31.946Z,3.20
2019-03-31T03:56:59.975Z,3.20
2019-03-31T03:59:27.887Z,3.20
2019-03-31T04:01:57.569Z,3.00
2019-03-31T04:04:25.793Z,2.80
2019-03-31T04:06:53.984Z,2.90
2019-03-31T04:09:22.329Z,3.00
2019-03-31T04:11:50.925Z,2.70
2019-03-31T04:14:18.916Z,2.60
2019-03-31T04:16:47.607Z,2.40
2019-03-31T04:19:15.490Z,2.30
2019-03-31T04:21:43.527Z,2.40
2019-03-31T04:24:11.536Z,2.30
2019-03-31T04:26:39.736Z,2.20
2019-03-31T04:29:07.932Z,2.20
2019-03-31T04:31:35.858Z,2.50
2019-03-31T04:34:03.922Z,2.80
2019-03-31T04:36:31.715Z,2.90
2019-03-31T04:39:00.388Z,2.90
2019-03-31T04:41:28.617Z,3.00
2019-03-31T04:43:56.362Z,3.20
2019-03-31T04:46:24.101Z,3.20
2019-03-31T04:48:51.858Z,3.00
2019-03-31T04:51:19.628Z,3.10
2019-03-31T04:53:47.284Z,3.10
2019-03-31T04:56:15.056Z,3.20
2019-03-31T04:58:42.816Z,3.20
2019-03-31T05:01:10.560Z,3.10
2019-03-31T05:03:38.320Z,3.20
2019-03-31T05:06:06.121Z,3.00
2019-03-31T05:08:33.868Z,3.00
2019-03-31T05:11:01.929Z,2.90
2019-03-31T05:13:29.659Z,3.10
2019-03-31T05:15:57.517Z,3.20
2019-03-31T05:18:25.276Z,3.20
2019-03-31T05:20:53.049Z,3.20
2019-03-31T05:23:20.803Z,3.30
2019-03-31T05:25:48.561Z,3.50
2019-03-31T05:28:16.314Z,3.50
2019-03-31T05:30:44.053Z,3.60
2019-03-31T05:33:11.797Z,3.70
2019-03-31T05:35:39.552Z,3.90
2019-03-31T05:38:07.315Z,4.00
2019-03-31T05:40:35.069Z,3.70
2019-03-31T05:43:03.058Z,3.50
2019-03-31T05:45:31.063Z,3.70
2019-03-31T05:47:58.960Z,3.80
2019-03-31T05:50:26.763Z,3.70
2019-03-31T05:52:54.939Z,4.10
2019-03-31T05:55:22.903Z,4.40
2019-03-31T05:57:50.778Z,4.70
2019-03-31T06:00:31.644Z,5.10
2019-03-31T06:02:59.414Z,5.20
2019-03-31T06:05:27.212Z,5.30
2019-03-31T06:07:54.995Z,5.60
2019-03-31T06:10:23.020Z,6.20
2019-03-31T06:12:51.141Z,6.60
2019-03-31T06:15:19.042Z,7.50
2019-03-31T06:17:46.938Z,8.30
2019-03-31T06:20:14.829Z,8.40
2019-03-31T06:22:42.637Z,9.00
2019-03-31T06:25:10.407Z,9.30
2019-03-31T06:27:38.183Z,9.50
2019-03-31T06:30:06.819Z,9.60
2019-03-31T06:32:34.704Z,10.10
2019-03-31T06:35:02.638Z,10.50
2019-03-31T06:37:30.534Z,10.50
2019-03-31T06:39:58.322Z,10.70
2019-03-31T06:42:26.229Z,11.00
2019-03-31T06:44:54.046Z,11.40
2019-03-31T06:47:21.936Z,11.70
2019-03-31T06:49:49.742Z,12.10
2019-03-31T06:52:17.523Z,12.00
2019-03-31T06:54:45.520Z,12.20
2019-03-31T06:57:13.310Z,12.70
2019-03-31T06:59:41.126Z,13.40
2019-03-31T07:02:09.015Z,13.50
2019-03-31T07:04:36.927Z,14.00
2019-03-31T07:07:04.726Z,14.30
2019-03-31T07:09:32.727Z,14.40
2019-03-31T07:12:00.627Z,15.00
2019-03-31T07:14:28.431Z,15.20
2019-03-31T07:16:56.211Z,15.10
2019-03-31T07:19:24.123Z,15.20
2019-03-31T07:21:52.001Z,15.80
2019-03-31T07:24:19.999Z,15.70
2019-03-31T07:26:47.992Z,15.40
2019-03-31T07:29:15.798Z,15.20
2019-03-31T07:31:43.690Z,15.20
2019-03-31T07:34:11.610Z,15.80
2019-03-31T07:36:40.524Z,16.20
2019-03-31T07:39:08.656Z,16.00
2019-03-31T07:41:36.754Z,16.10
2019-03-31T07:44:04.717Z,16.30
2019-03-31T07:46:32.493Z,16.60
2019-03-31T07:49:00.511Z,15.80
2019-03-31T07:51:28.423Z,15.80
2019-03-31T07:53:56.240Z,15.90
2019-03-31T07:56:24.148Z,16.20
2019-03-31T07:58:51.986Z,16.30
2019-03-31T08:01:20.791Z,16.10
2019-03-31T08:03:49.791Z,16.10
2019-03-31T08:06:17.785Z,16.40
2019-03-31T08:08:45.701Z,16.40
2019-03-31T08:11:16.959Z,16.90
2019-03-31T08:13:43.546Z,17.10
2019-03-31T08:16:11.438Z,17.30
2019-03-31T08:18:39.461Z,17.30
2019-03-31T08:21:07.860Z,17.70
2019-03-31T08:23:35.851Z,17.80
2019-03-31T08:26:03.787Z,17.50
2019-03-31T08:28:31.686Z,17.50
2019-03-31T08:30:59.610Z,17.70
2019-03-31T08:33:27.525Z,17.50
2019-03-31T08:35:55.411Z,17.60
2019-03-31T08:38:24.588Z,17.40
2019-03-31T08:40:52.779Z,18.00
2019-03-31T08:43:20.822Z,17.70
2019-03-31T08:45:48.708Z,17.70
2019-03-31T08:48:16.610Z,18.00
2019-03-31T08:50:44.598Z,18.20
2019-03-31T08:53:12.639Z,18.20
2019-03-31T08:55:40.446Z,18.20
2019-03-31T08:58:08.335Z,18.20
2019-03-31T09:00:45.722Z,18.50
2019-03-31T09:03:13.531Z,18.50
2019-03-31T09:05:41.415Z,18.80
2019-03-31T09:08:09.325Z,19.10
2019-03-31T09:10:37.275Z,19.30
2019-03-31T09:13:05.386Z,19.10
2019-03-31T09:15:33.309Z,19.40
2019-03-31T09:18:01.330Z,20.10
2019-03-31T09:20:29.253Z,20.00
2019-03-31T09:22:57.185Z,20.30
2019-03-31T09:25:25.093Z,20.40
2019-03-31T09:27:53.015Z,20.70
2019-03-31T09:30:21.146Z,21.00
2019-03-31T09:32:49.083Z,21.40
2019-03-31T09:35:17.070Z,21.50
2019-03-31T09:37:44.983Z,21.70
2019-03-31T09:40:13.313Z,21.60
2019-03-31T09:42:41.327Z,21.60
2019-03-31T09:45:09.591Z,21.20
2019-03-31T09:47:38.097Z,20.40
2019-03-31T09:50:07.642Z,20.40
2019-03-31T09:52:35.652Z,20.10
2019-03-31T09:55:04.079Z,20.10
2019-03-31T09:57:32.102Z,20.40
2019-03-31T10:00:00.374Z,20.20
2019-03-31T10:02:28.521Z,20.30
2019-03-31T10:04:56.295Z,20.90
2019-03-31T10:07:24.671Z,21.10
2019-03-31T10:09:52.717Z,20.40
2019-03-31T10:12:20.805Z,20.60
2019-03-31T10:14:48.686Z,20.40
2019-03-31T10:17:16.490Z,20.30
2019-03-31T10:19:44.267Z,19.90
2019-03-31T10:22:12.214Z,19.30
2019-03-31T10:24:40.122Z,19.30
2019-03-31T10:27:08.078Z,19.60
2019-03-31T10:29:36.094Z,20.10
2019-03-31T10:32:04.209Z,20.10
2019-03-31T10:34:31.983Z,20.20
2019-03-31T10:36:59.870Z,20.40
2019-03-31T10:39:28.394Z,20.20
2019-03-31T10:41:56.619Z,20.40
2019-03-31T10:44:24.475Z,20.00
2019-03-31T10:46:52.297Z,19.60
2019-03-31T10:49:20.248Z,19.30
2019-03-31T10:51:48.407Z,19.40
2019-03-31T10:54:16.361Z,19.70
2019-03-31T10:56:44.400Z,20.30
2019-03-31T10:59:12.227Z,21.10
2019-03-31T11:01:40.123Z,21.40
2019-03-31T11:04:08.022Z,21.30
2019-03-31T11:06:35.860Z,21.50
2019-03-31T11:09:05.511Z,21.60
2019-03-31T11:11:33.535Z,21.70
2019-03-31T11:14:01.459Z,21.90
2019-03-31T11:16:29.367Z,22.10
2019-03-31T11:18:57.360Z,21.90
2019-03-31T11:21:33.253Z,22.00
2019-03-31T11:24:01.138Z,21.60
2019-03-31T11:26:28.968Z,21.90
2019-03-31T11:28:56.762Z,22.10
2019-03-31T11:31:24.686Z,22.10
2019-03-31T11:33:52.583Z,21.90
2019-03-31T11:36:20.487Z,21.70
2019-03-31T11:38:48.682Z,21.80
2019-03-31T11:41:16.477Z,21.30
2019-03-31T11:43:45.354Z,21.60
2019-03-31T11:46:13.418Z,20.40
2019-03-31T11:48:41.259Z,19.90
2019-03-31T11:51:09.366Z,20.70
2019-03-31T11:53:37.191Z,21.10
2019-03-31T11:56:05.068Z,21.10
2019-03-31T11:58:32.868Z,21.30
2019-03-31T12:01:00.887Z,21.50
2019-03-31T12:03:30.925Z,21.40
2019-03-31T12:05:58.754Z,21.00
2019-03-31T12:08:26.648Z,21.00
2019-03-31T12:10:54.683Z,21.00
2019-03-31T12:13:22.626Z,20.80
2019-03-31T12:15:50.568Z,20.40
2019-03-31T12:18:18.506Z,20.20
2019-03-31T12:20:46.291Z,20.20
2019-03-31T12:23:14.071Z,20.50
2019-03-31T12:25:41.986Z,21.00
2019-03-31T12:28:09.778Z,21.00
2019-03-31T12:30:37.575Z,21.10
2019-03-31T12:33:05.490Z,21.00
2019-03-31T12:35:33.395Z,21.10
2019-03-31T12:38:01.179Z,21.30
2019-03-31T12:40:33.243Z,21.40
2019-03-31T12:43:01.219Z,22.20
2019-03-31T12:45:29.214Z,22.90
2019-03-31T12:47:57.137Z,23.10
2019-03-31T12:50:24.932Z,22.90
2019-03-31T12:52:52.720Z,23.20
2019-03-31T12:55:20.831Z,23.60
2019-03-31T12:57:51.604Z,23.90
2019-03-31T13:00:18.562Z,23.70
2019-03-31T13:02:46.475Z,23.10
2019-03-31T13:05:14.431Z,21.30
2019-03-31T13:07:55.426Z,20.30
2019-03-31T13:10:12.560Z,19.70
2019-03-31T13:12:40.463Z,19.60
2019-03-31T13:15:08.461Z,19.40
2019-03-31T13:17:36.525Z,19.40
2019-03-31T13:20:05.137Z,19.60
2019-03-31T13:22:33.102Z,19.60
2019-03-31T13:25:02.516Z,19.90
2019-03-31T13:27:30.675Z,20.50
2019-03-31T13:29:58.490Z,20.90
2019-03-31T13:32:26.415Z,21.20
2019-03-31T13:34:54.403Z,21.30
2019-03-31T13:37:22.303Z,21.30
2019-03-31T13:39:50.300Z,21.10
2019-03-31T13:42:18.207Z,21.00
2019-03-31T13:44:46.978Z,21.00
2019-03-31T13:47:14.903Z,20.70
2019-03-31T13:49:42.894Z,20.20
2019-03-31T13:52:10.819Z,19.40
2019-03-31T13:54:38.754Z,19.00
2019-03-31T13:57:07.625Z,18.70
2019-03-31T13:59:36.542Z,18.50
2019-03-31T14:02:04.735Z,18.50
2019-03-31T14:04:35.438Z,18.60
2019-03-31T14:07:04.470Z,18.70
2019-03-31T14:09:32.497Z,18.50
2019-03-31T14:12:00.291Z,18.20
2019-03-31T14:14:28.233Z,18.10
2019-03-31T14:16:56.208Z,18.10
2019-03-31T14:19:24.103Z,18.30
2019-03-31T14:21:52.119Z,18.70
2019-03-31T14:24:20.062Z,18.80
2019-03-31T14:26:48.021Z,18.90
2019-03-31T14:29:16.183Z,19.10
2019-03-31T14:31:44.109Z,19.10
2019-03-31T14:34:12.018Z,18.90
2019-03-31T14:36:40.067Z,18.80
2019-03-31T14:39:08.551Z,18.80
2019-03-31T14:41:36.711Z,18.90
2019-03-31T14:44:04.584Z,18.90
2019-03-31T14:46:32.651Z,18.80
2019-03-31T14:49:00.589Z,18.60
2019-03-31T14:51:28.383Z,18.50
2019-03-31T14:53:56.226Z,18.40
2019-03-31T14:56:24.285Z,18.40
2019-03-31T14:58:52.222Z,18.30
2019-03-31T15:01:21.395Z,18.10
2019-03-31T15:03:49.462Z,18.00
2019-03-31T15:06:17.363Z,17.90
2019-03-31T15:08:54.224Z,17.80
2019-03-31T15:11:15.110Z,17.70
2019-03-31T15:13:43.078Z,17.50
2019-03-31T15:16:11.039Z,17.30
2019-03-31T15:18:38.854Z,17.30
2019-03-31T15:21:06.843Z,17.30
2019-03-31T15:23:34.794Z,17.30
2019-03-31T15:26:02.819Z,17.30
2019-03-31T15:28:30.838Z,17.40
2019-03-31T15:30:58.783Z,17.30
2019-03-31T15:33:26.734Z,17.30
2019-03-31T15:35:55.011Z,17.40
2019-03-31T15:38:23.014Z,17.50
2019-03-31T15:40:50.929Z,17.40
2019-03-31T15:43:18.870Z,17.40
2019-03-31T15:45:46.721Z,17.40
2019-03-31T15:48:14.803Z,17.30
2019-03-31T15:50:42.940Z,17.30
2019-03-31T15:53:10.778Z,17.30
2019-03-31T15:55:38.678Z,17.30
2019-03-31T15:58:06.671Z,17.30
2019-03-31T16:00:34.635Z,17.30
2019-03-31T16:03:02.643Z,17.40
2019-03-31T16:05:30.421Z,17.30
2019-03-31T16:07:57.644Z,17.40
2019-03-31T16:10:24.877Z,17.50
2019-03-31T16:12:52.097Z,17.30
2019-03-31T16:15:19.441Z,17.20
2019-03-31T16:17:46.681Z,16.90
2019-03-31T16:20:14.228Z,17.00
2019-03-31T16:22:41.544Z,17.10
2019-03-31T16:25:21.021Z,17.00
2019-03-31T16:27:48.216Z,16.90
2019-03-31T16:30:15.653Z,16.90
2019-03-31T16:32:42.904Z,17.00
2019-03-31T16:35:10.322Z,17.00
2019-03-31T16:37:37.581Z,16.70
2019-03-31T16:40:05.300Z,16.60
2019-03-31T16:42:32.493Z,16.40
2019-03-31T16:44:59.707Z,16.50
2019-03-31T16:47:26.965Z,16.30
2019-03-31T16:49:54.316Z,16.30
2019-03-31T16:52:21.562Z,16.30
2019-03-31T16:54:48.774Z,16.10
2019-03-31T16:57:15.973Z,15.90
2019-03-31T16:59:43.174Z,15.90
2019-03-31T17:02:10.412Z,15.90
2019-03-31T17:04:37.672Z,15.70
2019-03-31T17:07:04.924Z,15.70
2019-03-31T17:09:32.161Z,15.60
2019-03-31T17:11:59.610Z,15.40
2019-03-31T17:14:26.812Z,15.50
2019-03-31T17:16:54.072Z,15.50
2019-03-31T17:19:21.338Z,15.50
2019-03-31T17:21:48.584Z,15.50
2019-03-31T17:24:15.896Z,15.40
2019-03-31T17:26:43.205Z,15.30
2019-03-31T17:29:10.421Z,15.30
2019-03-31T17:31:37.636Z,15.30
2019-03-31T17:34:04.934Z,15.10
2019-03-31T17:36:32.168Z,15.00
2019-03-31T17:38:59.373Z,15.00
2019-03-31T17:41:26.600Z,14.90
2019-03-31T17:43:53.892Z,14.70
2019-03-31T17:46:21.209Z,14.60
2019-03-31T17:48:48.413Z,14.60
2019-03-31T17:51:15.653Z,14.50
2019-03-31T17:53:42.865Z,14.40
2019-03-31T17:56:10.057Z,14.50
2019-03-31T17:58:37.326Z,14.40
2019-03-31T18:01:05.549Z,14.60
2019-03-31T18:03:32.764Z,14.60
2019-03-31T18:06:00.032Z,14.40
2019-03-31T18:08:27.256Z,14.20
2019-03-31T18:10:54.584Z,13.90
2019-03-31T18:13:22.003Z,13.60
2019-03-31T18:15:49.434Z,13.40
2019-03-31T18:18:16.668Z,13.20
2019-03-31T18:20:43.951Z,13.10
2019-03-31T18:23:11.233Z,13.00
2019-03-31T18:25:38.442Z,12.90
2019-03-31T18:28:05.750Z,12.80
2019-03-31T18:30:32.956Z,12.80
2019-03-31T18:33:00.398Z,12.60
2019-03-31T18:35:27.606Z,12.60
2019-03-31T18:37:54.816Z,12.70
2019-03-31T18:40:34.373Z,12.70
2019-03-31T18:42:51.137Z,12.70
2019-03-31T18:45:18.336Z,12.60
2019-03-31T18:47:45.561Z,12.60
2019-03-31T18:50:13.021Z,12.50
2019-03-31T18:52:40.364Z,12.50
2019-03-31T18:55:36.321Z,12.50
2019-03-31T18:58:21.232Z,12.50
2019-03-31T19:00:57.408Z,12.50
2019-03-31T19:03:41.568Z,12.50
2019-03-31T19:06:24.853Z,12.50
2019-03-31T19:09:12.625Z,12.40
2019-03-31T19:11:49.048Z,12.40
2019-03-31T19:14:34.337Z,12.40
2019-03-31T19:17:27.859Z,12.30
2019-03-31T19:20:30.285Z,12.10
2019-03-31T19:23:07.356Z,11.90
2019-03-31T19:25:42.805Z,11.70
2019-03-31T19:28:27.187Z,11.70
2019-03-31T19:31:23.273Z,11.90
2019-03-31T19:34:08.737Z,11.80
2019-03-31T19:36:43.997Z,11.70
2019-03-31T19:39:27.831Z,11.70
2019-03-31T19:42:29.298Z,11.70
2019-03-31T19:45:14.959Z,11.70
2019-03-31T19:47:50.952Z,11.70
2019-03-31T19:50:46.601Z,11.90
2019-03-31T19:53:42.536Z,11.90
2019-03-31T19:56:31.881Z,11.80
2019-03-31T19:59:21.418Z,11.80
2019-03-31T20:02:14.309Z,11.60
2019-03-31T20:05:00.244Z,11.50
2019-03-31T20:07:47.360Z,11.50
2019-03-31T20:10:34.208Z,11.40
2019-03-31T20:13:26.941Z,11.40
2019-03-31T20:16:13.892Z,11.40
2019-03-31T20:18:56.047Z,11.40
2019-03-31T20:21:34.216Z,11.40
2019-03-31T20:24:17.912Z,11.40
2019-03-31T20:26:53.549Z,11.50
2019-03-31T20:29:40.140Z,11.50
2019-03-31T20:32:35.552Z,11.40
2019-03-31T20:35:25.156Z,11.30
2019-03-31T20:38:13.288Z,11.20
2019-03-31T20:41:00.144Z,11.10
2019-03-31T20:43:47.832Z,11.00
2019-03-31T20:46:15.009Z,10.80
2019-03-31T20:48:42.204Z,10.70
2019-03-31T20:51:09.412Z,10.50
2019-03-31T20:53:36.612Z,10.60
2019-03-31T20:56:03.981Z,10.90
2019-03-31T20:58:31.172Z,10.90
2019-03-31T21:00:58.368Z,11.00
2019-03-31T21:03:25.568Z,11.00
2019-03-31T21:05:52.784Z,11.10
2019-03-31T21:08:19.968Z,11.10
2019-03-31T21:10:47.168Z,11.10
2019-03-31T21:13:14.377Z,11.20
2019-03-31T21:15:41.573Z,10.80
2019-03-31T21:18:08.790Z,10.90
2019-03-31T21:20:36.145Z,10.80
2019-03-31T21:23:03.349Z,11.00
2019-03-31T21:25:30.540Z,11.20
2019-03-31T21:27:57.746Z,11.10
2019-03-31T21:30:24.950Z,11.20
2019-03-31T21:32:52.184Z,11.30
2019-03-31T21:35:19.416Z,11.20
2019-03-31T21:37:46.612Z,11.10
2019-03-31T21:40:13.808Z,10.90
2019-03-31T21:42:41.064Z,11.20
2019-03-31T21:45:08.365Z,11.10
2019-03-31T21:47:35.713Z,11.10
2019-03-31T21:50:03.504Z,11.00
2019-03-31T21:52:30.719Z,10.80
2019-03-31T21:54:57.921Z,10.70
2019-03-31T21:57:25.120Z,10.60
2019-03-31T21:59:52.332Z,10.50
2019-03-31T22:02:19.550Z,10.30
2019-03-31T22:04:46.757Z,10.20
2019-03-31T22:07:13.985Z,10.20
2019-03-31T22:09:41.289Z,10.20
2019-03-31T22:12:08.488Z,10.10
2019-03-31T22:14:35.720Z,10.10
2019-03-31T22:17:03.036Z,10.20
2019-03-31T22:19:30.254Z,10.10
2019-03-31T22:21:57.437Z,10.10
2019-03-31T22:24:24.740Z,10.10
2019-03-31T22:26:51.934Z,10.00
2019-03-31T22:29:19.153Z,10.10
2019-03-31T22:31:46.387Z,10.10
2019-03-31T22:34:13.997Z,10.20
2019-03-31T22:36:41.200Z,10.10
2019-03-31T22:39:08.616Z,10.10
2019-03-31T22:41:35.811Z,10.10
2019-03-31T22:44:03.081Z,10.10
2019-03-31T22:46:30.376Z,10.10
2019-03-31T22:48:57.580Z,10.10
2019-03-31T22:51:24.772Z,10.10
2019-03-31T22:53:51.971Z,10.10
2019-03-31T22:56:19.177Z,10.20
2019-03-31T22:58:46.393Z,10.20
2019-03-31T23:01:13.604Z,10.20
2019-03-31T23:03:40.813Z,10.10
2019-03-31T23:06:08.007Z,10.10
2019-03-31T23:08:35.228Z,10.10
2019-03-31T23:11:03.068Z,10.10
2019-03-31T23:13:30.316Z,10.10
2019-03-31T23:15:57.670Z,10.10
2019-03-31T23:18:24.888Z,10.10
2019-03-31T23:20:52.065Z,10.10
2019-03-31T23:23:19.278Z,10.00
2019-03-31T23:25:46.477Z,10.00
2019-03-31T23:28:13.696Z,10.20
2019-03-31T23:30:40.904Z,10.00
2019-03-31T23:33:08.097Z,10.00
2019-03-31T23:35:35.292Z,10.00
2019-03-31T23:38:02.492Z,9.90
2019-03-31T23:40:29.693Z,9.80
2019-03-31T23:42:56.887Z,9.80
2019-03-31T23:45:24.208Z,9.70
2019-03-31T23:47:51.408Z,9.70
2019-03-31T23:50:18.596Z,9.70
2019-03-31T23:52:45.793Z,9.60
2019-03-31T23:55:13.012Z,9.60
2019-03-31T23:57:41.110Z,9.50
